Time;durP1;ratioP1;P1;durP2;ratioP2;P2;SDS_P1;SDS_P2;PMS_P1;PMS_P2;Temp;Humidity;BMP_temperature;BMP_pressure;BME280_temperature;BME280_humidity;BME280_pressure;Samples;Min_cycle;Max_cycle;Signal;HPM_P1;HPM_P2
2022/08/19 00:01:52;;;;;;;21.20;12.38;;;17.60;99.90;;;;;;4789967;29;20133;-67
2022/08/19 00:04:21;;;;;;;21.42;12.40;;;17.60;99.90;;;;;;4834981;29;20046;-67
2022/08/19 00:06:47;;;;;;;26.23;12.23;;;17.50;99.90;;;;;;4835318;29;20058;-67
2022/08/19 00:09:16;;;;;;;20.27;11.38;;;17.40;99.90;;;;;;4804427;29;20047;-67
2022/08/19 00:11:43;;;;;;;24.42;13.55;;;17.90;99.90;;;;;;4787133;30;20120;-67
2022/08/19 00:14:11;;;;;;;25.92;12.77;;;17.30;99.90;;;;;;4804063;29;20061;-67
2022/08/19 00:16:41;;;;;;;26.80;13.05;;;17.60;99.90;;;;;;4787207;30;20055;-67
2022/08/19 00:19:08;;;;;;;20.67;11.90;;;17.30;99.90;;;;;;4787740;29;20134;-67
2022/08/19 00:21:38;;;;;;;24.90;12.75;;;;;;;;;;4789764;29;20054;-67
2022/08/19 00:24:04;;;;;;;22.42;13.18;;;17.50;99.90;;;;;;4789799;29;20061;-67
2022/08/19 00:26:29;;;;;;;21.23;11.82;;;18.30;99.90;;;;;;4789743;29;20129;-68
2022/08/19 00:28:55;;;;;;;24.05;13.57;;;17.50;99.90;;;;;;4804461;29;20050;-67
2022/08/19 00:31:22;;;;;;;26.40;13.07;;;;;;;;;;4804863;29;20082;-67
2022/08/19 00:33:51;;;;;;;26.38;13.57;;;;;;;;;;4789701;29;20049;-67
2022/08/19 00:36:17;;;;;;;25.88;12.55;;;17.20;99.90;;;;;;4804705;29;20097;-67
2022/08/19 00:38:43;;;;;;;28.67;13.50;;;17.50;99.90;;;;;;4806232;29;20457;-67
2022/08/19 00:41:20;;;;;;;24.40;13.38;;;17.30;99.90;;;;;;4820353;29;20051;-68
2022/08/19 00:44:03;;;;;;;31.30;13.60;;;17.20;99.90;;;;;;4804885;29;20525;-67
2022/08/19 00:46:29;;;;;;;33.83;13.43;;;17.80;99.90;;;;;;4833767;29;20062;-67
2022/08/19 00:48:57;;;;;;;23.20;14.05;;;18.20;99.90;;;;;;4821697;29;20058;-72
2022/08/19 00:51:26;;;;;;;29.40;13.48;;;17.20;99.90;;;;;;4804981;29;20069;-72
2022/08/19 00:53:53;;;;;;;23.30;13.60;;;16.90;99.90;;;;;;4803404;29;20504;-71
2022/08/19 00:56:19;;;;;;;24.30;14.45;;;;;;;;;;4803780;29;20074;-72
2022/08/19 00:58:45;;;;;;;25.00;13.45;;;;;;;;;;4807546;29;20492;-72
2022/08/19 01:01:11;;;;;;;30.65;14.07;;;;;;;;;;4807877;29;20046;-72
2022/08/19 01:03:37;;;;;;;27.35;14.30;;;;;;;;;;4807465;29;20476;-72
2022/08/19 01:06:03;;;;;;;29.45;14.00;;;;;;;;;;4792635;29;20496;-72
2022/08/19 01:08:29;;;;;;;21.65;14.10;;;;;;;;;;4793121;29;20400;-72
2022/08/19 01:10:59;;;;;;;25.52;14.10;;;15.80;99.90;;;;;;4807184;29;20125;-72
2022/08/19 01:13:28;;;;;;;28.15;13.40;;;16.90;99.90;;;;;;4807249;29;20488;-72
2022/08/19 01:16:03;;;;;;;22.65;13.30;;;17.90;99.90;;;;;;4837807;29;20050;-72
2022/08/19 01:18:29;;;;;;;26.20;12.02;;;;;;;;;;4792480;29;20080;-72
2022/08/19 01:20:58;;;;;;;27.80;13.80;;;15.80;99.90;;;;;;4807380;29;20055;-71
2022/08/19 01:23:42;;;;;;;26.67;13.23;;;;;;;;;;4808905;29;20125;-72
2022/08/19 01:26:09;;;;;;;27.27;13.63;;;17.10;99.90;;;;;;4807310;29;20134;-71
2022/08/19 01:28:36;;;;;;;29.17;13.05;;;15.50;99.90;;;;;;4837923;29;20046;-72
2022/08/19 01:31:02;;;;;;;27.77;13.93;;;;;;;;;;4807325;29;20051;-72
2022/08/19 01:33:30;;;;;;;25.25;14.18;;;;;;;;;;4806107;29;20115;-72
2022/08/19 01:36:28;;;;;;;34.80;14.27;;;16.90;99.90;;;;;;4806840;29;20043;-72
2022/08/19 01:38:54;;;;;;;30.40;14.00;;;;;;;;;;4807074;29;20107;-72
2022/08/19 01:41:23;;;;;;;30.30;14.52;;;;;;;;;;4807132;29;20047;-72
2022/08/19 01:43:50;;;;;;;26.65;14.48;;;;;;;;;;4791826;29;20051;-72
2022/08/19 01:46:16;;;;;;;29.30;13.52;;;;;;;;;;4807165;29;20055;-72
2022/08/19 01:48:44;;;;;;;24.55;13.15;;;16.90;99.90;;;;;;4792414;29;20062;-72
2022/08/19 01:51:10;;;;;;;27.15;13.05;;;16.20;99.90;;;;;;4807241;29;20051;-72
2022/08/19 01:53:36;;;;;;;29.05;13.27;;;;;;;;;;4791654;29;20057;-72
2022/08/19 01:56:04;;;;;;;26.70;14.10;;;16.70;99.90;;;;;;4806362;29;20104;-72
2022/08/19 01:58:35;;;;;;;28.55;14.13;;;16.70;99.90;;;;;;4792127;29;20050;-72
2022/08/19 02:01:02;;;;;;;25.00;13.50;;;;;;;;;;4837270;29;20076;-72
2022/08/19 02:03:28;;;;;;;25.58;13.10;;;16.60;99.90;;;;;;4806509;29;20104;-72
2022/08/19 02:06:04;;;;;;;27.75;12.48;;;16.90;99.90;;;;;;4825617;29;20051;-72
2022/08/19 02:08:32;;;;;;;24.77;12.18;;;16.90;99.90;;;;;;4807705;29;20432;-71
2022/08/19 02:10:58;;;;;;;25.70;13.77;;;;;;;;;;4837198;29;20054;-72
2022/08/19 02:13:24;;;;;;;28.88;13.77;;;16.70;99.90;;;;;;4806785;29;20089;-72
2022/08/19 02:15:51;;;;;;;30.92;14.70;;;;;;;;;;4806716;29;20134;-72
2022/08/19 02:18:17;;;;;;;26.90;13.90;;;15.60;99.90;;;;;;4806966;29;20046;-72
2022/08/19 02:20:44;;;;;;;29.30;13.57;;;17.90;99.90;;;;;;4837031;29;20061;-72
2022/08/19 02:23:11;;;;;;;25.35;13.40;;;16.90;99.90;;;;;;4791268;29;20047;-72
2022/08/19 02:25:37;;;;;;;24.90;13.70;;;;;;;;;;4821640;29;20137;-72
2022/08/19 02:28:03;;;;;;;26.13;13.25;;;;;;;;;;4807285;29;20142;-71
2022/08/19 02:30:29;;;;;;;28.50;12.63;;;;;;;;;;4808056;29;20043;-72
2022/08/19 02:32:56;;;;;;;24.92;13.52;;;;;;;;;;4807947;29;20054;-73
2022/08/19 02:35:22;;;;;;;25.90;13.50;;;;;;;;;;4793686;29;20047;-73
2022/08/19 02:40:36;;;;;;;29.23;12.85;;;17.90;99.90;;;;;;4807798;29;20053;-73
2022/08/19 02:43:09;;;;;;;25.45;12.95;;;16.60;99.90;;;;;;4806955;29;20073;-73
2022/08/19 02:45:37;;;;;;;27.52;13.20;;;17.40;99.90;;;;;;4807121;29;20054;-72
2022/08/19 02:48:04;;;;;;;21.98;13.80;;;17.90;99.90;;;;;;4790813;29;20125;-73
2022/08/19 02:50:29;;;;;;;27.92;14.32;;;16.70;99.90;;;;;;4791341;29;20046;-72
2022/08/19 02:52:55;;;;;;;25.95;12.13;;;15.50;99.90;;;;;;4805865;29;20053;-72
2022/08/19 02:55:21;;;;;;;27.63;14.32;;;;;;;;;;4806335;29;20063;-72
2022/08/19 02:57:47;;;;;;;24.58;14.20;;;;;;;;;;4805776;29;20058;-73
2022/08/19 03:00:14;;;;;;;25.02;13.68;;;17.60;99.90;;;;;;4805576;29;20054;-72
2022/08/19 03:02:41;;;;;;;30.08;14.35;;;;;;;;;;4805044;29;20125;-72
2022/08/19 03:05:09;;;;;;;25.15;13.75;;;16.10;99.90;;;;;;4790319;29;20075;-72
2022/08/19 03:07:35;;;;;;;27.77;15.38;;;15.50;99.90;;;;;;4790144;29;20078;-72
2022/08/19 03:10:01;;;;;;;30.40;15.63;;;15.90;99.90;;;;;;4790549;29;20043;-72
2022/08/19 03:12:26;;;;;;;30.55;13.93;;;17.80;99.90;;;;;;4806680;29;20096;-72
2022/08/19 03:14:52;;;;;;;32.38;14.07;;;17.30;99.90;;;;;;4805679;29;20051;-72
2022/08/19 03:17:19;;;;;;;26.40;13.82;;;;;;;;;;4805513;29;20046;-72
2022/08/19 03:19:45;;;;;;;27.10;13.00;;;;;;;;;;4805447;29;20050;-72
2022/08/19 03:22:11;;;;;;;26.10;13.88;;;;;;;;;;4804668;29;20104;-72
2022/08/19 03:24:37;;;;;;;26.10;14.02;;;;;;;;;;4805211;29;20081;-72
2022/08/19 03:27:04;;;;;;;26.60;14.55;;;;;;;;;;4805317;29;20050;-72
2022/08/19 03:29:31;;;;;;;26.48;13.68;;;;;;;;;;4805283;29;20504;-72
2022/08/19 03:32:00;;;;;;;23.90;13.52;;;16.60;99.90;;;;;;4805379;29;20070;-72
2022/08/19 03:34:28;;;;;;;26.73;13.48;;;16.70;99.90;;;;;;4805232;29;20054;-72
2022/08/19 03:37:03;;;;;;;26.35;14.32;;;16.70;99.90;;;;;;4805182;29;20054;-72
2022/08/19 03:39:29;;;;;;;23.80;14.05;;;;;;;;;;4834159;29;20050;-72
2022/08/19 03:41:57;;;;;;;25.63;13.88;;;;;;;;;;4805067;29;20098;-67
2022/08/19 03:44:23;;;;;;;30.50;14.23;;;;;;;;;;4805172;29;20138;-67
2022/08/19 03:46:58;;;;;;;27.17;14.32;;;;;;;;;;4805140;29;20053;-67
2022/08/19 03:49:26;;;;;;;29.63;14.07;;;;;;;;;;4805008;29;20062;-67
2022/08/19 03:51:53;;;;;;;25.15;13.93;;;;;;;;;;4804982;29;20043;-67
2022/08/19 03:54:22;;;;;;;31.02;13.80;;;;;;;;;;4790019;29;20054;-67
2022/08/19 03:56:50;;;;;;;29.55;14.35;;;16.70;99.90;;;;;;4804722;29;20070;-67
2022/08/19 03:59:24;;;;;;;33.30;15.65;;;16.70;99.90;;;;;;4833942;29;20146;-70
2022/08/19 04:01:55;;;;;;;25.92;14.27;;;16.60;99.90;;;;;;4835227;29;20121;-68
2022/08/19 04:04:21;;;;;;;27.85;14.15;;;;;;;;;;4806461;29;20050;-68
2022/08/19 04:06:47;;;;;;;30.42;15.15;;;;;;;;;;4789756;29;20046;-67
2022/08/19 04:09:14;;;;;;;28.77;14.52;;;;;;;;;;4804542;29;20506;-67
2022/08/19 04:11:42;;;;;;;29.48;15.65;;;16.60;99.90;;;;;;4804550;29;20043;-67
2022/08/19 04:14:10;;;;;;;33.90;14.98;;;16.50;99.90;;;;;;4834872;29;20078;-67
2022/08/19 04:16:36;;;;;;;38.10;15.63;;;;;;;;;;4835275;29;20055;-68
2022/08/19 04:19:04;;;;;;;30.13;14.85;;;16.50;99.90;;;;;;4804159;29;20055;-67
2022/08/19 04:21:30;;;;;;;36.10;15.20;;;;;;;;;;4789553;29;20516;-68
2022/08/19 04:23:56;;;;;;;28.08;14.60;;;17.70;99.90;;;;;;4804691;29;20138;-68
2022/08/19 04:26:28;;;;;;;33.30;14.85;;;15.30;99.90;;;;;;4791919;29;20038;-68
2022/08/19 04:28:55;;;;;;;27.60;14.65;;;16.40;99.90;;;;;;4810794;29;20561;-67
2022/08/19 04:31:25;;;;;;;32.42;14.85;;;;;;;;;;4795340;29;20039;-67
2022/08/19 04:33:51;;;;;;;31.10;15.35;;;;;;;;;;4818279;29;20514;-67
2022/08/19 04:36:20;;;;;;;29.30;15.60;;;;;;;;;;4809783;29;20133;-68
2022/08/19 04:38:46;;;;;;;27.73;15.13;;;;;;;;;;4807996;29;20055;-68
2022/08/19 04:43:57;;;;;;;30.15;16.48;;;;;;;;;;4789889;30;20531;-67
2022/08/19 04:46:23;;;;;;;29.27;15.68;;;;;;;;;;4808656;29;20043;-67
2022/08/19 04:48:49;;;;;;;23.70;13.70;;;;;;;;;;4807761;29;20078;-68
2022/08/19 04:51:15;;;;;;;32.58;16.25;;;;;;;;;;4792833;29;20046;-67
2022/08/19 04:53:42;;;;;;;30.55;16.20;;;16.40;99.90;;;;;;4808219;29;20068;-67
2022/08/19 04:56:12;;;;;;;33.70;15.45;;;16.40;99.90;;;;;;4807267;29;20516;-67
2022/08/19 04:58:42;;;;;;;32.97;15.40;;;16.30;99.90;;;;;;4807863;29;20104;-67
2022/08/19 05:01:10;;;;;;;30.00;15.05;;;16.20;99.90;;;;;;4792831;29;20042;-67
2022/08/19 05:03:37;;;;;;;29.42;15.45;;;;;;;;;;4830185;29;20054;-67
2022/08/19 05:06:10;;;;;;;29.55;16.17;;;15.40;99.90;;;;;;4807932;29;20125;-67
2022/08/19 05:08:38;;;;;;;30.63;16.15;;;16.80;99.90;;;;;;4836512;29;20066;-67
2022/08/19 05:11:38;;;;;;;33.38;15.95;;;16.10;99.90;;;;;;4838341;29;20047;-67
2022/08/19 05:14:04;;;;;;;36.38;16.58;;;;;;;;;;4806955;29;20107;-67
2022/08/19 05:16:31;;;;;;;28.70;14.95;;;;;;;;;;4815877;29;20541;-68
2022/08/19 05:24:28;;;;;;;26.35;14.80;;;17.60;99.90;;;;;;4837505;29;20054;-68
2022/08/19 05:26:56;;;;;;;33.05;16.77;;;16.40;99.90;;;;;;4792582;29;20050;-67
2022/08/19 05:29:23;;;;;;;34.67;15.90;;;16.80;99.90;;;;;;4836238;29;20072;-73
2022/08/19 05:31:50;;;;;;;30.60;17.00;;;;;;;;;;4790928;29;20051;-67
2022/08/19 05:34:18;;;;;;;36.13;19.20;;;16.80;99.90;;;;;;4790840;29;20137;-68
2022/08/19 05:36:47;;;;;;;33.88;18.15;;;17.00;99.90;;;;;;4805908;29;20059;-67
2022/08/19 05:39:19;;;;;;;33.85;19.08;;;16.90;99.90;;;;;;4806627;29;20055;-68
2022/08/19 05:42:00;;;;;;;39.63;20.23;;;17.90;99.90;;;;;;4836864;29;20047;-67
2022/08/19 05:44:31;;;;;;;34.22;18.15;;;16.90;99.90;;;;;;4806041;29;20057;-68
2022/08/19 05:47:01;;;;;;;33.85;18.25;;;16.90;99.90;;;;;;4806863;29;20100;-67
2022/08/19 05:49:29;;;;;;;34.63;18.27;;;;;;;;;;4835809;29;20046;-67
2022/08/19 05:51:55;;;;;;;39.97;19.15;;;15.80;99.90;;;;;;4807120;29;20543;-67
2022/08/19 05:54:22;;;;;;;36.70;18.98;;;18.00;99.90;;;;;;4806642;29;20147;-67
2022/08/19 05:56:50;;;;;;;33.30;17.15;;;17.20;99.90;;;;;;4837292;29;20070;-67
2022/08/19 05:59:17;;;;;;;38.85;20.38;;;;;;;;;;4836238;29;20062;-67
2022/08/19 06:01:45;;;;;;;44.40;19.38;;;16.10;99.90;;;;;;4806504;29;20175;-67
2022/08/19 06:04:18;;;;;;;37.88;19.23;;;17.20;99.90;;;;;;4822014;29;20053;-67
2022/08/19 06:06:45;;;;;;;39.70;21.08;;;;;;;;;;4806900;29;20175;-67
2022/08/19 06:09:11;;;;;;;40.63;19.83;;;16.20;99.90;;;;;;4791065;29;20122;-67
2022/08/19 06:11:53;;;;;;;42.75;20.80;;;17.30;99.90;;;;;;4791859;29;20118;-67
2022/08/19 06:14:22;;;;;;;37.57;20.30;;;17.40;99.90;;;;;;4806612;29;20162;-67
2022/08/19 06:16:51;;;;;;;47.55;21.42;;;;;;;;;;4837150;29;20392;-67
2022/08/19 06:19:19;;;;;;;42.47;20.48;;;17.50;99.90;;;;;;4804795;29;20050;-68
2022/08/19 06:21:47;;;;;;;45.28;21.48;;;16.70;99.90;;;;;;4786210;30;20382;-67
2022/08/19 06:24:15;;;;;;;44.75;21.30;;;17.70;99.90;;;;;;4788533;30;20055;-67
2022/08/19 06:26:44;;;;;;;41.65;20.27;;;17.50;99.90;;;;;;4800519;29;20049;-67
2022/08/19 06:29:12;;;;;;;43.45;21.48;;;17.60;99.90;;;;;;4806620;29;20058;-68
2022/08/19 06:31:46;;;;;;;46.55;21.98;;;17.40;99.90;;;;;;4816442;29;20057;-67
2022/08/19 06:34:13;;;;;;;43.60;21.63;;;17.90;99.90;;;;;;4824586;29;20058;-67
2022/08/19 06:36:43;;;;;;;40.08;21.70;;;17.90;99.90;;;;;;4794291;29;20043;-67
2022/08/19 06:39:18;;;;;;;42.47;21.63;;;17.40;99.90;;;;;;4795281;29;20411;-67
2022/08/19 06:41:48;;;;;;;49.85;22.45;;;18.00;99.90;;;;;;4806289;29;20086;-67
2022/08/19 06:44:14;;;;;;;45.70;21.13;;;18.00;99.90;;;;;;4821911;29;20054;-67
2022/08/19 06:46:41;;;;;;;43.22;22.10;;;;;;;;;;4837931;29;20515;-67
2022/08/19 06:49:13;;;;;;;44.88;23.05;;;;;;;;;;4803189;29;20045;-67
2022/08/19 06:51:43;;;;;;;;;;;18.40;99.90;;;;;;4802383;29;20465;-67
2022/08/19 06:54:09;;;;;;;42.55;21.25;;;;;;;;;;4802581;29;19921;-67
2022/08/19 06:56:36;;;;;;;44.60;21.75;;;;;;;;;;4804304;29;20097;-67
2022/08/19 06:59:05;;;;;;;38.97;21.38;;;18.10;99.90;;;;;;4792232;29;20505;-67
2022/08/19 07:01:38;;;;;;;45.67;22.08;;;18.40;99.90;;;;;;4789858;29;20052;-67
2022/08/19 07:04:08;;;;;;;40.13;21.42;;;18.40;99.90;;;;;;4805833;29;20051;-67
2022/08/19 07:06:36;;;;;;;43.95;22.58;;;18.40;99.90;;;;;;4805829;29;20076;-67
2022/08/19 07:09:03;;;;;;;41.92;21.67;;;18.60;99.90;;;;;;4805807;29;20053;-67
2022/08/19 07:11:30;;;;;;;40.55;21.48;;;19.20;99.90;;;;;;4805715;29;20046;-67
2022/08/19 07:13:56;;;;;;;50.35;23.10;;;18.80;99.90;;;;;;4805351;29;20080;-67
2022/08/19 07:16:22;;;;;;;52.10;24.08;;;19.60;99.90;;;;;;4775923;29;20081;-67
2022/08/19 07:18:49;;;;;;;42.40;23.08;;;18.30;99.90;;;;;;4791204;29;20043;-66
2022/08/19 07:21:28;;;;;;;48.60;24.27;;;19.40;99.90;;;;;;4832369;29;20400;-66
2022/08/19 07:23:56;;;;;;;42.15;23.80;;;19.80;99.90;;;;;;4826388;29;20114;-67
2022/08/19 07:26:28;;;;;;;46.60;24.23;;;19.70;99.90;;;;;;4842252;29;20104;-67
2022/08/19 07:28:54;;;;;;;49.05;24.50;;;;;;;;;;4844580;29;20043;-66
2022/08/19 07:31:22;;;;;;;49.53;26.00;;;19.10;99.90;;;;;;4804463;29;20105;-67
2022/08/19 07:33:50;;;;;;;47.15;22.98;;;19.00;99.90;;;;;;4800513;29;20043;-67
2022/08/19 07:36:20;;;;;;;47.72;26.95;;;20.30;99.90;;;;;;4800814;29;20088;-67
2022/08/19 07:38:49;;;;;;;48.17;27.45;;;19.20;99.90;;;;;;4801362;29;20055;-67
2022/08/19 07:41:20;;;;;;;47.53;25.45;;;19.20;99.90;;;;;;4799611;29;20062;-67
2022/08/19 07:43:47;;;;;;;53.30;27.25;;;18.60;99.90;;;;;;4800387;29;20046;-67
2022/08/19 07:46:13;;;;;;;50.58;26.13;;;20.20;99.90;;;;;;4783097;29;20035;-67
2022/08/19 07:48:40;;;;;;;61.08;30.02;;;20.00;99.90;;;;;;4790232;29;20076;-67
2022/08/19 07:51:08;;;;;;;60.05;29.02;;;19.80;99.90;;;;;;4821624;29;20133;-66
2022/08/19 07:53:35;;;;;;;58.13;29.98;;;19.70;99.90;;;;;;4787078;29;20059;-66
2022/08/19 07:56:04;;;;;;;56.25;30.33;;;19.90;99.90;;;;;;4799875;29;20395;-66
2022/08/19 07:58:38;;;;;;;67.88;32.50;;;20.20;99.90;;;;;;4800308;29;20051;-66
2022/08/19 08:01:06;;;;;;;61.78;29.35;;;19.70;99.90;;;;;;4830791;29;20047;-66
2022/08/19 08:09:19;;;;;;;59.03;29.40;;;20.00;99.90;;;;;;4799687;29;20423;-66
2022/08/19 08:11:50;;;;;;;68.30;34.97;;;20.00;99.90;;;;;;4800496;29;20131;-66
2022/08/19 08:14:20;;;;;;;72.75;36.13;;;20.00;99.90;;;;;;4800590;29;20130;-67
2022/08/19 08:16:45;;;;;;;66.80;35.10;;;20.60;99.90;;;;;;4799425;29;20059;-66
2022/08/19 08:19:14;;;;;;;60.65;31.75;;;20.50;99.90;;;;;;4800167;29;20050;-69
2022/08/19 08:21:41;;;;;;;61.85;31.35;;;20.20;99.90;;;;;;4800291;29;20055;-72
2022/08/19 08:24:07;;;;;;;71.32;35.72;;;19.60;99.90;;;;;;4802863;29;20039;-71
2022/08/19 08:26:33;;;;;;;96.68;37.28;;;20.10;99.90;;;;;;4800535;29;20104;-73
2022/08/19 08:28:58;;;;;;;72.38;35.13;;;20.90;99.90;;;;;;4792346;29;20059;-74
2022/08/19 08:31:25;;;;;;;70.45;36.15;;;;;;;;;;4785655;29;20043;-76
2022/08/19 08:33:51;;;;;;;79.50;39.90;;;;;;;;;;4800870;29;20141;-73
2022/08/19 08:36:17;;;;;;;73.32;39.88;;;21.50;99.90;;;;;;4785332;29;20121;-69
2022/08/19 08:38:46;;;;;;;81.57;41.55;;;20.00;99.90;;;;;;4800145;29;20043;-66
2022/08/19 08:41:38;;;;;;;79.10;40.30;;;20.70;99.90;;;;;;4800144;29;20057;-67
2022/08/19 08:44:04;;;;;;;71.80;36.77;;;;;;;;;;4829892;29;20133;-67
2022/08/19 08:46:31;;;;;;;79.05;38.72;;;;;;;;;;4801002;29;20374;-67
2022/08/19 08:49:20;;;;;;;81.07;38.78;;;20.10;99.90;;;;;;4798754;29;20052;-67
2022/08/19 08:51:52;;;;;;;67.47;34.88;;;21.80;99.90;;;;;;4798008;29;20125;-67
2022/08/19 08:54:23;;;;;;;82.00;38.50;;;21.90;99.90;;;;;;4812353;29;20053;-69
2022/08/19 08:56:51;;;;;;;76.15;36.95;;;21.30;99.90;;;;;;4810802;29;20054;-67
2022/08/19 08:59:34;;;;;;;78.70;38.50;;;21.10;99.90;;;;;;4797350;29;20499;-67
2022/08/19 09:02:00;;;;;;;77.40;38.00;;;20.70;99.90;;;;;;4817614;29;20061;-67
2022/08/19 09:04:26;;;;;;;74.65;38.28;;;21.80;99.90;;;;;;4822671;29;20483;-67
2022/08/19 09:06:55;;;;;;;62.38;35.30;;;21.20;99.90;;;;;;4806553;29;20093;-69
2022/08/19 09:09:43;;;;;;;72.78;36.90;;;21.70;99.90;;;;;;4798409;29;20053;-69
2022/08/19 09:12:12;;;;;;;71.78;37.28;;;21.40;99.90;;;;;;4814728;29;20045;-69
2022/08/19 09:14:46;;;;;;;70.35;36.17;;;21.10;99.90;;;;;;4809936;29;20515;-67
2022/08/19 09:17:13;;;;;;;67.28;35.38;;;22.00;99.90;;;;;;4810992;29;20138;-67
2022/08/19 09:19:52;;;;;;;69.20;34.10;;;22.40;99.90;;;;;;4818501;29;20509;-67
2022/08/19 09:22:21;;;;;;;63.05;32.42;;;22.40;99.90;;;;;;4814186;29;20066;-67
2022/08/19 09:24:48;;;;;;;59.38;30.92;;;22.90;99.90;;;;;;4817325;29;20042;-67
2022/08/19 09:27:13;;;;;;;60.15;29.65;;;21.50;99.90;;;;;;4831380;29;20050;-67
2022/08/19 09:29:39;;;;;;;59.45;28.35;;;;;;;;;;4814889;29;20046;-67
2022/08/19 09:32:05;;;;;;;47.03;25.23;;;22.80;99.90;;;;;;4799776;29;20034;-67
2022/08/19 09:34:32;;;;;;;52.92;25.98;;;23.40;99.90;;;;;;4811316;29;20100;-67
2022/08/19 09:36:59;;;;;;;58.40;29.50;;;23.00;99.90;;;;;;4831802;29;20046;-67
2022/08/19 09:39:25;;;;;;;57.92;29.75;;;23.40;99.90;;;;;;4813945;29;20050;-67
2022/08/19 09:41:52;;;;;;;55.95;29.52;;;;;;;;;;4814017;29;20054;-67
2022/08/19 09:44:20;;;;;;;50.65;27.45;;;23.50;99.90;;;;;;4798508;29;20555;-67
2022/08/19 09:46:48;;;;;;;52.45;28.38;;;22.10;99.10;;;;;;4806530;29;20046;-70
2022/08/19 09:49:16;;;;;;;44.75;22.98;;;23.20;99.60;;;;;;4803766;29;20038;-68
2022/08/19 09:51:42;;;;;;;44.67;24.40;;;23.20;99.90;;;;;;4827601;29;20054;-70
2022/08/19 09:54:08;;;;;;;53.72;26.80;;;23.40;99.90;;;;;;4827356;29;20059;-69
2022/08/19 09:56:34;;;;;;;392.88;36.35;;;23.00;99.90;;;;;;4814353;29;20179;-72
2022/08/19 09:59:03;;;;;;;59.45;27.73;;;23.30;99.00;;;;;;4835548;29;20134;-68
2022/08/19 10:01:30;;;;;;;57.55;25.88;;;23.80;99.90;;;;;;4791341;29;20396;-68
2022/08/19 10:03:58;;;;;;;54.63;22.65;;;22.30;98.90;;;;;;4825213;29;20062;-70
2022/08/19 10:06:26;;;;;;;53.95;22.98;;;23.80;99.60;;;;;;4805431;29;20043;-72
2022/08/19 10:08:52;;;;;;;44.63;20.35;;;22.50;99.50;;;;;;4790793;29;20507;-73
2022/08/19 10:11:20;;;;;;;46.70;21.85;;;23.70;99.90;;;;;;4805508;29;20085;-73
2022/08/19 10:13:46;;;;;;;43.22;21.83;;;22.40;99.60;;;;;;4816891;29;20069;-69
2022/08/19 10:16:17;;;;;;;45.05;22.10;;;22.30;99.90;;;;;;4833719;29;20530;-69
2022/08/19 10:18:44;;;;;;;47.10;22.03;;;;;;;;;;4835230;29;20059;-68
2022/08/19 10:21:14;;;;;;;59.33;26.15;;;23.50;99.90;;;;;;4804473;29;20049;-69
2022/08/19 10:23:44;;;;;;;44.90;22.83;;;23.30;98.20;;;;;;4803749;29;20054;-69
2022/08/19 10:26:15;;;;;;;47.28;25.63;;;23.90;99.90;;;;;;4835019;29;20116;-69
2022/08/19 10:28:41;;;;;;;50.40;24.10;;;;;;;;;;4805821;29;20066;-69
2022/08/19 10:31:17;;;;;;;46.50;23.58;;;23.30;99.90;;;;;;4804583;29;20042;-69
2022/08/19 10:33:43;;;;;;;53.30;23.30;;;22.70;99.90;;;;;;4803659;29;20496;-69
2022/08/19 10:36:18;;;;;;;48.03;23.23;;;23.80;99.90;;;;;;4805335;29;20047;-69
2022/08/19 10:38:45;;;;;;;40.50;19.73;;;24.00;99.90;;;;;;4800677;29;20488;-69
2022/08/19 10:41:14;;;;;;;44.38;20.90;;;24.50;99.90;;;;;;4793673;29;20051;-70
2022/08/19 10:43:41;;;;;;;43.28;20.38;;;24.30;99.90;;;;;;4806339;29;20056;-69
2022/08/19 10:46:09;;;;;;;39.45;18.63;;;24.10;99.90;;;;;;4806898;29;20408;-69
2022/08/19 10:48:36;;;;;;;39.65;20.00;;;23.70;99.90;;;;;;4805896;29;20104;-69
2022/08/19 10:53:47;;;;;;;45.33;21.42;;;25.00;99.90;;;;;;4805767;29;20519;-69
2022/08/19 10:58:58;;;;;;;45.20;20.45;;;25.10;98.20;;;;;;4802887;29;20047;-72
2022/08/19 11:01:26;;;;;;;43.17;17.38;;;25.00;99.90;;;;;;4823230;29;20039;-73
2022/08/19 11:03:52;;;;;;;38.22;16.50;;;23.90;99.80;;;;;;4789644;29;20070;-72
2022/08/19 11:06:19;;;;;;;34.55;18.45;;;23.90;96.10;;;;;;4834345;29;20408;-68
2022/08/19 11:08:45;;;;;;;37.17;18.35;;;24.30;99.90;;;;;;4789862;29;20043;-70
2022/08/19 11:11:12;;;;;;;39.03;17.83;;;24.30;95.60;;;;;;4804707;29;20047;-73
2022/08/19 11:13:40;;;;;;;40.88;18.75;;;24.00;99.20;;;;;;4789614;29;20058;-68
2022/08/19 11:16:10;;;;;;;39.10;18.08;;;24.80;99.90;;;;;;4826703;29;20047;-69
2022/08/19 11:18:37;;;;;;;39.63;18.70;;;23.30;99.80;;;;;;4824563;29;20043;-69
2022/08/19 11:21:16;;;;;;;38.83;18.30;;;23.70;99.90;;;;;;4821795;29;20515;-69
2022/08/19 11:23:43;;;;;;;41.92;18.67;;;23.80;99.90;;;;;;4804760;29;20165;-69
2022/08/19 11:26:09;;;;;;;45.67;18.13;;;24.50;95.30;;;;;;4806649;29;20053;-69
2022/08/19 11:28:36;;;;;;;96.65;21.52;;;24.10;99.90;;;;;;4804663;29;20047;-74
2022/08/19 11:31:03;;;;;;;43.75;17.13;;;23.10;99.70;;;;;;4804414;29;20046;-69
2022/08/19 11:33:30;;;;;;;36.38;17.23;;;23.80;95.20;;;;;;4789243;29;20086;-68
2022/08/19 11:35:58;;;;;;;33.97;15.15;;;25.00;99.90;;;;;;4833829;29;20092;-68
2022/08/19 11:38:25;;;;;;;38.40;15.63;;;23.80;95.30;;;;;;4789078;29;20043;-69
2022/08/19 11:40:59;;;;;;;33.70;15.23;;;24.70;92.90;;;;;;4788857;29;20098;-68
2022/08/19 11:43:26;;;;;;;30.02;15.10;;;25.00;98.60;;;;;;4803269;29;20050;-69
2022/08/19 11:45:53;;;;;;;33.90;15.88;;;24.70;98.80;;;;;;4804436;29;20060;-69
2022/08/19 11:48:22;;;;;;;34.13;13.98;;;24.80;99.00;;;;;;4789307;29;20446;-69
2022/08/19 11:50:52;;;;;;;32.25;13.95;;;24.70;94.70;;;;;;4789317;29;20450;-68
2022/08/19 11:53:19;;;;;;;39.88;15.57;;;24.30;94.60;;;;;;4827976;29;20116;-69
2022/08/19 11:55:49;;;;;;;34.90;15.60;;;24.70;99.30;;;;;;4821771;29;20050;-68
2022/08/19 11:58:16;;;;;;;28.40;15.57;;;23.80;98.90;;;;;;4788990;29;20063;-69
2022/08/19 12:00:44;;;;;;;27.35;14.15;;;23.70;96.90;;;;;;4829404;29;20466;-69
2022/08/19 12:03:12;;;;;;;32.33;13.98;;;24.00;99.20;;;;;;4794538;29;20046;-69
2022/08/19 12:05:40;;;;;;;38.13;17.63;;;25.70;98.70;;;;;;4803852;29;20086;-69
2022/08/19 12:08:07;;;;;;;37.70;16.90;;;25.30;94.00;;;;;;4789270;29;20064;-69
2022/08/19 12:10:34;;;;;;;35.45;15.82;;;25.80;98.40;;;;;;4804619;29;20038;-69
2022/08/19 12:13:00;;;;;;;34.88;14.75;;;24.80;97.70;;;;;;4809277;29;20082;-69
2022/08/19 12:15:27;;;;;;;30.02;13.43;;;25.30;97.90;;;;;;4815295;29;20038;-69
2022/08/19 12:17:56;;;;;;;24.33;11.23;;;25.70;95.90;;;;;;4812889;29;20530;-69
2022/08/19 12:20:22;;;;;;;26.88;11.30;;;25.80;97.30;;;;;;4817249;29;20411;-69
2022/08/19 12:22:48;;;;;;;23.00;11.98;;;;;;;;;;4784936;29;20053;-68
2022/08/19 12:25:14;;;;;;;25.05;12.05;;;25.70;94.00;;;;;;4801623;29;20118;-69
2022/08/19 12:27:40;;;;;;;20.52;10.32;;;25.10;97.00;;;;;;4800832;29;20094;-69
2022/08/19 12:30:09;;;;;;;28.20;12.90;;;26.00;96.80;;;;;;4816875;29;20082;-69
2022/08/19 12:32:34;;;;;;;26.55;11.93;;;25.20;96.30;;;;;;4817363;29;20404;-69
2022/08/19 12:35:00;;;;;;;23.08;12.20;;;26.20;96.50;;;;;;4809407;29;20054;-70
2022/08/19 12:37:26;;;;;;;25.02;11.90;;;26.10;96.50;;;;;;4810439;29;20415;-69
2022/08/19 12:39:52;;;;;;;25.70;13.82;;;;;;;;;;4797632;29;20050;-69
2022/08/19 12:42:18;;;;;;;29.67;14.27;;;25.90;96.60;;;;;;4792723;29;20130;-69
2022/08/19 12:44:44;;;;;;;25.58;13.90;;;24.60;96.10;;;;;;4815131;29;20130;-69
2022/08/19 12:47:13;;;;;;;33.22;16.13;;;25.70;96.50;;;;;;4817312;29;20042;-69
2022/08/19 12:49:40;;;;;;;25.08;12.73;;;25.90;97.00;;;;;;4796169;29;20042;-69
2022/08/19 12:52:08;;;;;;;32.35;14.50;;;26.00;97.20;;;;;;4817860;29;20459;-69
2022/08/19 12:54:35;;;;;;;31.77;14.48;;;24.80;93.40;;;;;;4809647;29;20046;-69
2022/08/19 12:57:05;;;;;;;39.22;16.23;;;26.00;96.80;;;;;;4829413;29;20066;-69
2022/08/19 12:59:31;;;;;;;35.30;15.80;;;25.90;96.60;;;;;;4811673;29;20070;-69
2022/08/19 13:01:57;;;;;;;33.38;15.80;;;26.00;96.90;;;;;;4797144;29;20054;-69
2022/08/19 13:04:23;;;;;;;29.48;15.30;;;26.10;97.00;;;;;;4831230;29;20043;-69
2022/08/19 13:06:48;;;;;;;29.52;14.55;;;25.20;96.50;;;;;;4814043;29;20078;-69
2022/08/19 13:09:14;;;;;;;29.75;14.35;;;26.20;96.90;;;;;;4798668;29;20069;-69
2022/08/19 13:11:40;;;;;;;42.10;16.15;;;26.30;93.10;;;;;;4796806;29;20051;-69
2022/08/19 13:14:06;;;;;;;31.60;14.13;;;;;;;;;;4816789;29;20058;-69
2022/08/19 13:16:32;;;;;;;35.50;17.05;;;25.40;92.20;;;;;;4817001;29;20483;-69
2022/08/19 13:18:58;;;;;;;32.10;15.30;;;26.00;96.40;;;;;;4816496;29;20046;-69
2022/08/19 13:21:27;;;;;;;34.25;16.33;;;26.40;96.30;;;;;;4807885;29;20057;-69